This is the latest recevied weather packets stored in our database for station/object LKKB. If no packets are shown the sender has not sent any weather packets the latest 1 day(s).
| Time | Temp. | Humidity | Pressure | Rain* | Wind** | Luminosity | Snow |
|---|---|---|---|---|---|---|---|
| 1778000463 | 20° C | 52% | 1005 hPa | - | 7.15 m/s, 130° | - | - |
| 1777998730 | 23.89° C | 33% | 1004 hPa | - | 3.13 m/s, 50° | - | - |
| 1777998024 | 23.89° C | 36% | - | - | 3.13 m/s, 60° | - | - |
| 1777996863 | 23.89° C | 36% | 1004 hPa | - | 2.68 m/s, 70° | - | - |
| 1777995130 | 23.89° C | 36% | 1005 hPa | - | 2.24 m/s, 80° | - | - |
| 1777994348 | 22.78° C | 38% | - | - | 2.24 m/s, 80° | - | - |
| 1777993332 | 22.78° C | 40% | 1005 hPa | - | 1.34 m/s, 110° | - | - |
| 1777991463 | 23.89° C | 38% | 1005 hPa | - | 3.13 m/s, 80° | - | - |
| 1777990749 | 23.89° C | 38% | - | - | 3.13 m/s, 70° | - | - |
| 1777989731 | 23.89° C | 38% | 1005 hPa | - | 2.68 m/s, 20° | - | - |
| 1777987862 | 23.89° C | 41% | 1005 hPa | - | 3.13 m/s, 80° | - | - |
| 1777987134 | 22.78° C | 40% | - | - | 3.13 m/s, 110° | - | - |
| 1777986062 | 22.78° C | 40% | 1006 hPa | - | 3.13 m/s, 60° | - | - |
| 1777984263 | 22.22° C | 43% | 1007 hPa | - | 2.24 m/s, 30° | - | - |
| 1777983532 | 22.78° C | 40% | - | - | 3.13 m/s, 10° | - | - |
| 1777982463 | 22.22° C | 43% | 1007 hPa | - | 2.24 m/s, 70° | - | - |
| 1777980664 | 22.22° C | 43% | 1007 hPa | - | 1.34 m/s, 130° | - | - |
| 1777979932 | 22.22° C | 43% | - | - | 3.13 m/s, 340° | - | - |
| 1777978929 | 22.22° C | 46% | 1007 hPa | - | 2.68 m/s, 10° | - | - |
| 1777977063 | 21.11° C | 46% | 1007 hPa | - | 2.24 m/s, 0° | - | - |
| 1777976332 | 21.11° C | 43% | - | - | 2.24 m/s, 350° | - | - |
| 1777975263 | 21.11° C | 46% | 1007 hPa | - | 2.68 m/s, 20° | - | - |
| 1777973463 | 20° C | 52% | 1008 hPa | - | 2.24 m/s, 20° | - | - |
| 1777972731 | 20° C | 56% | - | - | 3.13 m/s, 10° | - | - |
| 1777971663 | 18.89° C | 55% | 1008 hPa | - | 2.68 m/s, 30° | - | - |
* Rain since midnight (hover to see other rain measurements)
** Current wind speed in m/s (hover to see current wind gust speed)